Time;durP1;ratioP1;P1;durP2;ratioP2;P2;SDS_P1;SDS_P2;PMS_P1;PMS_P2;Temp;Humidity;BMP_temperature;BMP_pressure;BME280_temperature;BME280_humidity;BME280_pressure;Samples;Min_cycle;Max_cycle;Signal;HPM_P1;HPM_P2
2022/11/28 03:46:54;;;;;;;15.57;8.30;;;5.20;98.30;;;;;;4977979;23;89485;-81
2022/11/28 03:49:26;;;;;;;15.85;8.30;;;5.20;98.60;;;;;;4789086;29;86913;-84
2022/11/28 03:51:58;;;;;;;13.68;7.07;;;5.30;98.60;;;;;;4783828;29;86584;-84
2022/11/28 03:54:47;;;;;;;14.48;7.47;;;5.40;98.70;;;;;;4811233;29;90642;-82
2022/11/28 03:57:42;;;;;;;12.20;6.88;;;5.40;98.80;;;;;;4794540;29;86863;-80
2022/11/28 04:00:11;;;;;;;14.50;7.07;;;5.40;98.60;;;;;;4785978;29;86608;-80
2022/11/28 04:03:16;;;;;;;14.10;7.18;;;5.40;98.70;;;;;;4785179;29;85555;-81
2022/11/28 04:05:53;;;;;;;14.23;7.13;;;5.40;98.60;;;;;;4793757;29;88275;-79
2022/11/28 04:08:57;;;;;;;12.27;5.82;;;5.50;98.40;;;;;;4791858;29;87550;-85
2022/11/28 04:11:32;;;;;;;14.88;6.38;;;5.50;98.30;;;;;;4771913;29;87450;-85
2022/11/28 04:14:20;;;;;;;11.93;6.25;;;5.50;98.20;;;;;;4798318;29;86665;-87
2022/11/28 04:16:49;;;;;;;14.00;6.45;;;5.40;98.30;;;;;;4795619;29;87342;-84
2022/11/28 04:19:32;;;;;;;13.25;6.57;;;5.40;98.40;;;;;;4783274;29;87557;-86
2022/11/28 04:22:06;;;;;;;13.30;6.10;;;5.30;98.70;;;;;;4790592;29;86204;-86
2022/11/28 04:25:07;;;;;;;13.80;7.30;;;5.30;98.90;;;;;;4789616;29;86666;-87
2022/11/28 04:27:39;;;;;;;14.23;7.13;;;5.30;98.90;;;;;;4784215;29;87756;-84
2022/11/28 04:30:07;;;;;;;17.60;6.47;;;5.20;99.00;;;;;;4790978;29;87489;-82
2022/11/28 04:32:38;;;;;;;13.30;6.63;;;5.20;99.50;;;;;;4802567;29;86729;-85
2022/11/28 04:35:11;;;;;;;15.77;6.38;;;5.20;99.30;;;;;;4783142;29;86823;-84
2022/11/28 04:37:40;;;;;;;14.75;6.05;;;5.20;99.30;;;;;;4782904;29;87893;-83
2022/11/28 04:40:10;;;;;;;14.18;6.90;;;5.20;98.60;;;;;;4782904;29;87846;-83
2022/11/28 04:42:42;;;;;;;14.57;6.68;;;5.20;98.50;;;;;;4777615;29;86296;-84
2022/11/28 04:45:15;;;;;;;12.70;6.35;;;5.10;98.20;;;;;;4786074;29;86570;-86
2022/11/28 04:47:43;;;;;;;13.65;6.43;;;5.10;98.10;;;;;;4791893;29;87923;-85
2022/11/28 04:50:09;;;;;;;12.27;6.40;;;5.00;98.20;;;;;;4801250;29;87078;-87
2022/11/28 04:52:49;;;;;;;15.23;6.70;;;5.00;98.20;;;;;;4800529;29;86734;-87
2022/11/28 04:55:30;;;;;;;14.35;6.18;;;5.10;98.10;;;;;;4810174;29;85668;-89
2022/11/28 04:58:25;;;;;;;13.70;5.72;;;5.10;97.90;;;;;;4809450;29;87081;-88
2022/11/28 05:00:53;;;;;;;12.90;6.18;;;5.10;97.80;;;;;;4793806;29;90374;-84
2022/11/28 05:03:20;;;;;;;14.38;5.75;;;5.20;97.50;;;;;;4798014;29;87195;-86
2022/11/28 05:05:50;;;;;;;10.32;5.00;;;5.30;97.50;;;;;;4803498;29;86291;-86
2022/11/28 05:08:17;;;;;;;10.70;5.43;;;5.30;97.50;;;;;;4816899;29;87402;-86
2022/11/28 05:10:43;;;;;;;13.20;5.70;;;5.40;97.60;;;;;;4803699;29;86393;-86
2022/11/28 05:13:08;;;;;;;15.88;5.90;;;5.40;97.70;;;;;;4793321;29;86874;-84
2022/11/28 05:15:34;;;;;;;12.00;5.55;;;5.50;97.50;;;;;;4794128;29;86493;-85
2022/11/28 05:18:00;;;;;;;12.15;6.60;;;5.60;97.60;;;;;;4812539;29;87541;-86
2022/11/28 05:20:26;;;;;;;13.77;5.63;;;5.60;97.60;;;;;;4809396;29;87474;-86
2022/11/28 05:22:52;;;;;;;12.27;6.07;;;5.60;97.50;;;;;;4800717;29;86426;-86
2022/11/28 05:25:17;;;;;;;12.73;6.10;;;5.60;97.30;;;;;;4812259;29;87105;-86
2022/11/28 05:27:43;;;;;;;11.15;5.75;;;5.60;97.20;;;;;;4805261;29;91947;-82
2022/11/28 05:30:10;;;;;;;11.60;5.63;;;5.60;97.40;;;;;;4808419;29;88417;-83
2022/11/28 05:32:35;;;;;;;14.38;6.13;;;5.60;97.40;;;;;;4811333;29;86496;-82
2022/11/28 05:35:01;;;;;;;13.80;5.97;;;5.60;97.60;;;;;;4815216;29;86194;-83
2022/11/28 05:37:27;;;;;;;11.40;5.57;;;5.60;97.70;;;;;;4796686;29;87514;-80
2022/11/28 05:39:53;;;;;;;10.65;5.63;;;5.60;97.50;;;;;;4803585;29;86565;-78
2022/11/28 05:42:19;;;;;;;10.88;5.15;;;5.60;97.00;;;;;;4805626;29;86378;-79
2022/11/28 05:44:44;;;;;;;11.10;5.85;;;5.60;97.20;;;;;;4797505;29;86180;-79
2022/11/28 05:47:10;;;;;;;12.55;6.78;;;5.60;97.20;;;;;;4806804;29;86733;-78
2022/11/28 05:49:36;;;;;;;11.18;5.50;;;5.60;97.10;;;;;;4801925;29;86751;-82
2022/11/28 05:52:01;;;;;;;13.82;6.18;;;5.60;96.90;;;;;;4805031;29;87260;-78
2022/11/28 05:54:27;;;;;;;15.00;5.90;;;5.60;96.80;;;;;;4802593;29;86360;-77
2022/11/28 05:56:53;;;;;;;11.98;5.80;;;5.60;96.90;;;;;;4805948;29;87694;-81
2022/11/28 05:59:18;;;;;;;14.50;5.93;;;5.60;96.50;;;;;;4803584;29;86896;-79
2022/11/28 06:01:44;;;;;;;12.88;5.85;;;5.70;96.40;;;;;;4819553;29;87136;-78
2022/11/28 06:04:10;;;;;;;13.13;5.80;;;5.70;96.20;;;;;;4795079;29;86341;-78
2022/11/28 06:06:36;;;;;;;13.25;6.03;;;5.70;96.10;;;;;;4798980;29;86682;-78
2022/11/28 06:09:03;;;;;;;13.32;5.82;;;5.70;96.30;;;;;;4810475;29;86984;-79
2022/11/28 06:11:32;;;;;;;13.20;6.57;;;5.70;96.20;;;;;;4806761;29;87169;-78
2022/11/28 06:13:57;;;;;;;13.48;5.95;;;5.70;96.20;;;;;;4806630;29;86903;-78
2022/11/28 06:16:25;;;;;;;10.82;5.50;;;5.70;96.20;;;;;;4799288;29;88301;-79
2022/11/28 06:18:53;;;;;;;11.52;5.43;;;5.70;96.20;;;;;;4803337;29;87410;-80
2022/11/28 06:21:19;;;;;;;11.50;5.18;;;5.80;96.10;;;;;;4808952;29;86909;-78
2022/11/28 06:23:45;;;;;;;11.70;6.03;;;5.80;96.00;;;;;;4805832;29;86833;-82
2022/11/28 06:26:13;;;;;;;11.00;5.50;;;5.80;95.90;;;;;;4798470;29;87071;-78
2022/11/28 06:28:40;;;;;;;9.55;5.07;;;5.90;95.90;;;;;;4809645;29;87028;-82
2022/11/28 06:31:11;;;;;;;11.13;5.43;;;5.90;95.80;;;;;;4804165;29;86397;-82
2022/11/28 06:33:37;;;;;;;10.20;4.97;;;5.90;95.60;;;;;;4797830;29;85572;-81
2022/11/28 06:36:04;;;;;;;11.65;5.15;;;6.00;95.40;;;;;;4791602;29;87792;-80
2022/11/28 06:38:30;;;;;;;10.18;5.00;;;6.00;95.20;;;;;;4802912;29;87036;-82
2022/11/28 06:40:58;;;;;;;9.57;4.85;;;5.90;95.30;;;;;;4809817;29;87656;-82
2022/11/28 06:43:23;;;;;;;10.52;5.07;;;5.90;95.40;;;;;;4807718;29;86292;-80
2022/11/28 06:45:49;;;;;;;10.95;5.45;;;5.90;95.30;;;;;;4805196;29;87206;-80
2022/11/28 06:48:15;;;;;;;10.73;5.53;;;5.90;95.40;;;;;;4809106;29;86953;-81
2022/11/28 06:50:41;;;;;;;12.18;5.57;;;5.90;95.50;;;;;;4809880;29;86299;-80
2022/11/28 06:53:07;;;;;;;13.15;5.68;;;5.90;95.60;;;;;;4826729;29;86688;-80
2022/11/28 06:55:32;;;;;;;13.93;6.10;;;5.90;95.70;;;;;;4831549;29;88194;-80
2022/11/28 06:57:58;;;;;;;13.75;6.63;;;5.90;96.00;;;;;;4831908;29;86942;-80
2022/11/28 07:00:24;;;;;;;14.30;7.13;;;6.00;95.90;;;;;;4811366;29;86869;-80
2022/11/28 07:02:49;;;;;;;17.13;7.07;;;6.10;95.90;;;;;;4807369;29;86268;-80
2022/11/28 07:05:15;;;;;;;16.58;7.00;;;6.10;96.30;;;;;;4804416;29;87647;-80
2022/11/28 07:07:42;;;;;;;21.50;8.57;;;6.10;95.50;;;;;;4811881;29;87898;-82
2022/11/28 07:10:08;;;;;;;15.32;6.88;;;6.00;95.60;;;;;;4812791;29;86197;-82
2022/11/28 07:12:33;;;;;;;19.13;7.13;;;6.00;95.80;;;;;;4813311;29;86515;-81
2022/11/28 07:14:59;;;;;;;15.80;7.53;;;6.00;96.10;;;;;;4812470;29;87749;-82
2022/11/28 07:17:25;;;;;;;21.00;8.88;;;6.00;96.00;;;;;;4812756;29;86980;-81
2022/11/28 07:19:51;;;;;;;18.73;10.00;;;6.10;96.10;;;;;;4810314;29;86329;-86
2022/11/28 07:22:17;;;;;;;25.88;11.90;;;6.00;96.20;;;;;;4806420;29;86023;-80
2022/11/28 07:24:42;;;;;;;19.08;9.35;;;6.10;96.40;;;;;;4811684;29;86660;-81
2022/11/28 07:27:08;;;;;;;16.63;8.40;;;6.20;96.30;;;;;;4828238;29;87108;-84
2022/11/28 07:29:36;;;;;;;16.98;8.98;;;6.20;96.30;;;;;;4811838;29;87837;-81
2022/11/28 07:32:06;;;;;;;17.17;8.02;;;6.30;96.30;;;;;;4812173;29;86989;-82
2022/11/28 07:34:32;;;;;;;16.02;7.45;;;6.30;96.50;;;;;;4809294;29;87063;-81
2022/11/28 07:36:58;;;;;;;15.82;7.10;;;6.30;96.90;;;;;;4809828;29;86675;-81
2022/11/28 07:39:24;;;;;;;15.75;7.90;;;6.30;97.10;;;;;;4793979;29;86642;-82
2022/11/28 07:41:49;;;;;;;14.98;7.22;;;6.30;97.00;;;;;;4807707;29;88113;-81
2022/11/28 07:44:18;;;;;;;15.25;6.75;;;6.30;97.00;;;;;;4811874;29;86476;-81
2022/11/28 07:46:45;;;;;;;19.88;8.30;;;6.30;96.90;;;;;;4810135;29;90192;-82
2022/11/28 07:49:12;;;;;;;15.35;6.63;;;6.40;96.80;;;;;;4781722;29;86971;-82
2022/11/28 07:51:38;;;;;;;12.75;6.85;;;6.40;96.80;;;;;;4785306;29;87193;-83
2022/11/28 07:54:05;;;;;;;12.00;6.38;;;6.40;96.70;;;;;;4778979;29;88122;-85
2022/11/28 07:56:34;;;;;;;16.73;6.25;;;6.40;96.50;;;;;;4792753;29;87888;-82
2022/11/28 07:59:00;;;;;;;13.35;6.55;;;6.40;96.30;;;;;;4792970;29;86570;-79
2022/11/28 08:01:29;;;;;;;15.82;6.20;;;6.50;96.20;;;;;;4791025;29;86737;-79
2022/11/28 08:03:55;;;;;;;12.18;5.97;;;6.50;96.00;;;;;;4789601;29;87274;-78
2022/11/28 08:06:24;;;;;;;17.02;6.38;;;6.60;95.90;;;;;;4782053;29;86709;-76
2022/11/28 08:08:50;;;;;;;12.43;6.30;;;6.70;95.70;;;;;;4785507;29;86952;-79
2022/11/28 08:11:19;;;;;;;15.57;6.60;;;6.80;95.10;;;;;;4789630;29;86063;-77
2022/11/28 08:13:45;;;;;;;14.55;7.13;;;6.80;95.00;;;;;;4789652;29;86581;-76
2022/11/28 08:16:13;;;;;;;15.45;6.45;;;6.90;95.10;;;;;;4788450;29;88141;-78
2022/11/28 08:18:40;;;;;;;13.75;6.18;;;6.90;94.80;;;;;;4785051;29;87218;-78
2022/11/28 08:21:11;;;;;;;15.13;6.25;;;7.00;94.80;;;;;;4791150;29;87362;-79
2022/11/28 08:23:38;;;;;;;11.75;6.20;;;7.10;94.90;;;;;;4781732;29;87384;-77
2022/11/28 08:26:06;;;;;;;12.63;6.38;;;7.20;94.90;;;;;;4791285;29;86983;-79
2022/11/28 08:28:32;;;;;;;13.30;6.50;;;7.20;94.50;;;;;;4785808;29;86299;-78
2022/11/28 08:31:00;;;;;;;12.85;6.28;;;7.40;94.20;;;;;;4785588;29;86450;-78
2022/11/28 08:33:26;;;;;;;15.15;6.05;;;7.40;93.90;;;;;;4790198;29;87531;-78
2022/11/28 08:35:52;;;;;;;14.90;7.47;;;7.50;93.80;;;;;;4787561;29;86681;-78
2022/11/28 08:38:18;;;;;;;14.75;6.70;;;7.50;93.50;;;;;;4800339;29;86506;-77
2022/11/28 08:40:44;;;;;;;17.75;5.90;;;7.60;93.60;;;;;;4787396;29;86768;-76
2022/11/28 08:43:09;;;;;;;13.38;6.90;;;7.60;93.40;;;;;;4790248;29;88091;-78
2022/11/28 08:45:36;;;;;;;15.80;6.47;;;7.70;93.00;;;;;;4790277;29;87153;-78
2022/11/28 08:48:02;;;;;;;21.92;9.60;;;7.70;93.20;;;;;;4802675;29;86971;-77
2022/11/28 08:50:28;;;;;;;15.98;7.03;;;7.80;93.20;;;;;;4802248;29;86537;-79
2022/11/28 08:52:54;;;;;;;20.13;7.47;;;7.90;92.70;;;;;;4807866;29;87364;-79
2022/11/28 08:55:19;;;;;;;20.98;8.93;;;7.90;92.50;;;;;;4808309;29;87055;-79
2022/11/28 08:57:45;;;;;;;17.48;6.65;;;8.00;92.40;;;;;;4812300;29;86934;-79
2022/11/28 09:00:11;;;;;;;21.42;9.43;;;8.10;92.20;;;;;;4803043;29;86527;-79
2022/11/28 09:02:37;;;;;;;21.00;8.18;;;8.10;92.30;;;;;;4802194;29;87401;-77
2022/11/28 09:05:03;;;;;;;16.83;7.53;;;8.30;92.20;;;;;;4800624;29;87263;-78
2022/11/28 09:07:30;;;;;;;16.05;8.18;;;8.30;92.10;;;;;;4812935;29;87785;-77
2022/11/28 09:09:56;;;;;;;35.97;12.40;;;8.40;92.10;;;;;;4800307;29;87407;-77
2022/11/28 09:12:21;;;;;;;69.63;21.83;;;8.40;91.40;;;;;;4802480;29;87026;-78
2022/11/28 09:14:47;;;;;;;33.30;11.10;;;8.50;91.80;;;;;;4802659;29;87052;-78
2022/11/28 09:17:14;;;;;;;19.42;8.65;;;8.60;91.90;;;;;;4805360;29;86783;-79
2022/11/28 09:19:40;;;;;;;21.67;8.20;;;8.60;91.30;;;;;;4805890;29;87346;-78
2022/11/28 09:22:06;;;;;;;20.00;9.02;;;8.60;91.50;;;;;;4797146;29;87233;-78
2022/11/28 09:24:32;;;;;;;30.85;12.25;;;8.70;91.20;;;;;;4800684;29;86779;-78
2022/11/28 09:26:58;;;;;;;19.30;8.35;;;8.90;91.40;;;;;;4806222;29;86897;-77
2022/11/28 09:29:23;;;;;;;14.35;7.72;;;9.00;90.60;;;;;;4803168;29;86321;-78
2022/11/28 09:31:49;;;;;;;15.25;6.90;;;9.20;90.50;;;;;;4800867;29;88684;-78
2022/11/28 09:34:15;;;;;;;17.65;7.70;;;9.30;90.40;;;;;;4803947;29;87862;-78
2022/11/28 09:36:41;;;;;;;16.42;7.40;;;9.40;90.10;;;;;;4800450;29;86285;-79
2022/11/28 09:39:06;;;;;;;13.77;7.18;;;9.40;90.20;;;;;;4808474;29;86742;-78
2022/11/28 09:41:58;;;;;;;15.32;7.43;;;9.40;89.90;;;;;;4809808;29;87050;-79
2022/11/28 09:44:28;;;;;;;13.68;6.88;;;9.40;90.00;;;;;;4806460;29;87604;-78
2022/11/28 09:46:58;;;;;;;15.05;6.93;;;9.40;90.20;;;;;;4806129;29;87003;-78
2022/11/28 09:49:48;;;;;;;15.25;6.53;;;9.60;90.20;;;;;;4808567;29;85543;-77
2022/11/28 09:52:25;;;;;;;13.10;7.15;;;9.70;90.10;;;;;;4805911;29;87118;-78
2022/11/28 09:55:39;;;;;;;13.20;6.32;;;9.80;89.10;;;;;;4803709;29;87479;-79
2022/11/28 09:58:16;;;;;;;11.75;6.47;;;9.70;89.80;;;;;;4793441;29;87756;-77
2022/11/28 10:01:09;;;;;;;16.40;7.38;;;9.60;90.10;;;;;;4808796;29;86718;-76
2022/11/28 10:03:42;;;;;;;13.95;7.22;;;9.60;89.90;;;;;;4804583;29;87468;-79
2022/11/28 10:06:20;;;;;;;13.60;6.90;;;9.50;90.00;;;;;;4809375;29;87427;-77
2022/11/28 10:09:04;;;;;;;15.13;7.43;;;9.50;88.30;;;;;;4808157;29;86762;-77
2022/11/28 10:12:07;;;;;;;14.18;6.88;;;9.40;89.00;;;;;;4800713;29;86376;-77
2022/11/28 10:14:41;;;;;;;15.82;6.53;;;9.50;87.80;;;;;;4801764;29;87785;-77
2022/11/28 10:17:13;;;;;;;17.17;6.85;;;9.40;87.00;;;;;;4804142;29;87416;-77
2022/11/28 10:19:46;;;;;;;12.70;6.45;;;9.20;86.80;;;;;;4792290;29;86941;-78
2022/11/28 10:22:21;;;;;;;17.95;7.20;;;9.30;87.20;;;;;;4804858;29;86671;-77
2022/11/28 10:24:52;;;;;;;17.00;7.15;;;9.20;86.60;;;;;;4807064;29;88564;-80
2022/11/28 10:27:19;;;;;;;16.10;6.72;;;9.20;86.20;;;;;;4790204;29;87413;-78
2022/11/28 10:30:03;;;;;;;15.05;7.22;;;9.30;86.30;;;;;;4798669;29;86973;-78
2022/11/28 10:32:39;;;;;;;14.02;6.57;;;9.10;86.00;;;;;;4807875;29;87063;-77
2022/11/28 10:35:41;;;;;;;13.90;6.55;;;9.10;86.50;;;;;;4807349;29;87159;-76
2022/11/28 10:38:15;;;;;;;14.45;6.35;;;9.10;86.10;;;;;;4808017;29;87427;-78
2022/11/28 10:40:54;;;;;;;15.23;6.38;;;9.10;85.70;;;;;;4807652;29;86308;-79
2022/11/28 10:43:42;;;;;;;10.88;5.78;;;9.20;85.60;;;;;;4804041;29;86089;-77
2022/11/28 10:46:23;;;;;;;11.18;5.57;;;9.20;84.30;;;;;;4805665;29;86378;-77
2022/11/28 10:49:15;;;;;;;17.52;6.30;;;9.20;84.00;;;;;;4794930;29;87828;-78
2022/11/28 10:51:50;;;;;;;10.80;5.20;;;9.40;85.60;;;;;;4800099;29;87488;-78
2022/11/28 10:54:28;;;;;;;14.02;5.13;;;9.50;83.40;;;;;;4805364;29;86350;-77
2022/11/28 10:57:14;;;;;;;11.27;5.50;;;9.70;84.80;;;;;;4800369;29;87758;-77
2022/11/28 11:00:02;;;;;;;12.40;5.25;;;10.00;83.10;;;;;;4802014;29;86912;-77
2022/11/28 11:02:40;;;;;;;12.40;5.93;;;10.10;83.10;;;;;;4807083;29;87004;-79
2022/11/28 11:05:10;;;;;;;11.57;5.82;;;10.20;82.20;;;;;;4800753;29;87089;-79
2022/11/28 11:07:36;;;;;;;14.27;6.97;;;10.30;83.00;;;;;;4803068;29;87878;-78
2022/11/28 11:10:21;;;;;;;14.80;6.85;;;10.40;83.30;;;;;;4801410;29;86548;-78
2022/11/28 11:12:51;;;;;;;16.98;7.20;;;10.50;83.60;;;;;;4795670;29;86964;-78
2022/11/28 11:15:19;;;;;;;16.70;8.05;;;10.60;83.90;;;;;;4800440;29;86833;-78
2022/11/28 11:17:45;;;;;;;17.05;7.25;;;10.60;82.90;;;;;;4803144;29;88153;-77
2022/11/28 11:20:29;;;;;;;14.02;7.50;;;10.60;83.30;;;;;;4801349;29;87208;-77
2022/11/28 11:23:01;;;;;;;15.98;6.75;;;10.70;83.90;;;;;;4798633;29;87929;-78
2022/11/28 11:25:28;;;;;;;16.13;7.35;;;10.70;83.80;;;;;;4796931;29;86331;-78
2022/11/28 11:27:59;;;;;;;15.23;7.47;;;10.80;84.60;;;;;;4806213;29;87598;-79
2022/11/28 11:30:29;;;;;;;16.95;7.63;;;10.80;84.20;;;;;;4801177;29;86298;-77
2022/11/28 11:32:57;;;;;;;16.23;7.80;;;10.80;84.00;;;;;;4806609;29;86326;-78
2022/11/28 11:35:30;;;;;;;15.38;7.65;;;10.90;83.30;;;;;;4802432;29;86149;-79
2022/11/28 11:38:20;;;;;;;13.75;6.93;;;10.90;83.20;;;;;;4805194;29;87520;-78
2022/11/28 11:40:47;;;;;;;18.02;6.47;;;10.80;83.70;;;;;;4806763;29;87006;-78
2022/11/28 11:43:31;;;;;;;9.32;4.97;;;10.90;82.80;;;;;;4803242;29;87178;-79
2022/11/28 11:46:07;;;;;;;16.05;4.80;;;11.00;79.20;;;;;;4808904;29;87133;-78
2022/11/28 11:48:38;;;;;;;12.32;4.57;;;11.00;78.00;;;;;;4796333;29;88801;-78
2022/11/28 11:51:05;;;;;;;9.82;4.88;;;11.10;77.20;;;;;;4809547;29;86595;-77
2022/11/28 11:53:30;;;;;;;7.82;4.30;;;11.10;75.00;;;;;;4805074;29;86388;-78
2022/11/28 11:56:01;;;;;;;13.73;4.78;;;11.10;77.10;;;;;;4799047;29;86766;-78
2022/11/28 11:58:47;;;;;;;11.55;4.22;;;11.10;74.40;;;;;;4803006;29;86614;-76
2022/11/28 12:01:15;;;;;;;12.30;5.40;;;11.10;75.20;;;;;;4811037;29;86566;-78
2022/11/28 12:03:52;;;;;;;9.20;4.70;;;11.00;75.70;;;;;;4802927;29;86260;-78
2022/11/28 12:06:27;;;;;;;10.02;4.38;;;10.90;74.70;;;;;;4810161;29;86913;-78
2022/11/28 12:09:23;;;;;;;8.05;4.10;;;10.80;75.70;;;;;;4803648;29;88539;-78
2022/11/28 12:11:59;;;;;;;9.52;3.78;;;10.80;75.90;;;;;;4800298;29;88092;-78
2022/11/28 12:14:32;;;;;;;11.57;4.20;;;10.90;75.20;;;;;;4793272;29;86110;-78
2022/11/28 12:17:06;;;;;;;12.20;4.00;;;10.90;74.10;;;;;;4803149;29;87143;-78
2022/11/28 12:20:13;;;;;;;12.73;4.32;;;11.00;72.80;;;;;;4808068;29;86756;-78
2022/11/28 12:22:50;;;;;;;13.00;3.80;;;10.80;73.10;;;;;;4789523;29;87455;-78
2022/11/28 12:25:39;;;;;;;9.43;3.72;;;10.70;72.40;;;;;;4828635;29;87145;-77
2022/11/28 12:28:23;;;;;;;8.52;4.00;;;10.70;72.40;;;;;;4805139;29;85571;-78
2022/11/28 12:31:16;;;;;;;10.27;3.85;;;10.80;74.20;;;;;;4803652;29;87323;-78
2022/11/28 12:34:16;;;;;;;8.07;3.72;;;10.90;73.20;;;;;;4800041;29;87247;-78
2022/11/28 12:36:54;;;;;;;8.23;3.70;;;10.70;71.10;;;;;;4808318;29;88273;-78
2022/11/28 12:39:29;;;;;;;8.57;3.80;;;10.70;72.80;;;;;;4812765;29;86763;-79
2022/11/28 12:42:10;;;;;;;13.60;3.83;;;10.70;71.50;;;;;;4799056;29;87717;-78
2022/11/28 12:45:17;;;;;;;9.30;3.70;;;10.50;72.10;;;;;;4803270;29;87331;-79
2022/11/28 12:48:33;;;;;;;8.93;3.97;;;10.60;73.90;;;;;;4806572;29;86277;-78
2022/11/28 12:51:27;;;;;;;10.93;4.03;;;10.60;72.70;;;;;;4803485;29;86836;-79
2022/11/28 12:54:01;;;;;;;10.43;4.55;;;10.50;73.40;;;;;;4803547;29;87965;-77
2022/11/28 12:56:54;;;;;;;14.40;4.18;;;10.40;74.20;;;;;;4793594;29;87023;-76
2022/11/28 12:59:31;;;;;;;9.77;3.92;;;10.40;73.90;;;;;;4819723;29;86330;-77
2022/11/28 13:02:19;;;;;;;16.98;7.65;;;10.40;74.70;;;;;;4817501;29;86656;-77
2022/11/28 13:04:57;;;;;;;32.95;13.38;;;10.30;75.20;;;;;;4797179;29;88678;-78
2022/11/28 13:07:28;;;;;;;11.30;4.15;;;10.30;75.10;;;;;;4816274;29;88009;-76
2022/11/28 13:10:13;;;;;;;11.40;4.15;;;10.30;74.50;;;;;;4810817;29;86347;-76
2022/11/28 13:12:50;;;;;;;11.88;4.22;;;10.20;74.40;;;;;;4806264;29;86728;-75
2022/11/28 13:15:39;;;;;;;12.05;4.45;;;10.20;75.30;;;;;;4802301;29;86901;-76
2022/11/28 13:18:39;;;;;;;11.25;4.30;;;10.20;76.00;;;;;;4786792;29;87325;-76
2022/11/28 13:21:28;;;;;;;13.50;4.95;;;10.30;74.90;;;;;;4805628;29;86643;-78
2022/11/28 13:23:56;;;;;;;9.88;4.00;;;10.30;75.00;;;;;;4805215;29;86403;-79
2022/11/28 13:26:34;;;;;;;10.02;4.30;;;10.40;75.20;;;;;;4804979;29;87835;-79
2022/11/28 13:29:00;;;;;;;10.70;3.97;;;10.30;75.20;;;;;;4800058;29;86894;-78
2022/11/28 13:31:43;;;;;;;10.82;4.38;;;10.30;75.80;;;;;;4797836;29;88206;-79
2022/11/28 13:34:14;;;;;;;;;;;10.20;75.40;;;;;;4801683;29;86797;-79
2022/11/28 13:36:58;;;;;;;10.35;4.60;;;10.30;75.30;;;;;;4812617;29;87631;-79
2022/11/28 13:39:52;;;;;;;9.20;4.40;;;10.40;76.70;;;;;;4810172;29;87389;-78
2022/11/28 13:42:24;;;;;;;12.02;4.90;;;10.40;76.40;;;;;;4807471;29;86376;-77
2022/11/28 13:45:30;;;;;;;13.10;5.40;;;10.50;76.60;;;;;;4808222;29;86341;-77
2022/11/28 13:47:57;;;;;;;11.00;4.72;;;10.60;78.10;;;;;;4802517;29;88118;-77
2022/11/28 13:50:32;;;;;;;13.38;4.97;;;10.50;77.20;;;;;;4807758;29;87520;-76
2022/11/28 13:53:07;;;;;;;13.07;4.57;;;10.50;77.20;;;;;;4808475;29;86632;-78
2022/11/28 13:55:35;;;;;;;11.70;4.68;;;10.40;77.10;;;;;;4806464;29;86912;-77
2022/11/28 13:58:38;;;;;;;13.65;5.13;;;10.50;77.70;;;;;;4800813;29;88332;-81
2022/11/28 14:01:13;;;;;;;12.75;5.20;;;10.50;78.40;;;;;;4807169;29;87581;-81
2022/11/28 14:03:57;;;;;;;15.23;6.00;;;10.50;78.20;;;;;;4807266;29;86711;-81
2022/11/28 14:06:26;;;;;;;13.13;5.97;;;10.50;78.50;;;;;;4806450;29;86842;-80
2022/11/28 14:09:07;;;;;;;13.45;6.40;;;10.50;79.10;;;;;;4803759;29;86738;-80
2022/11/28 14:11:48;;;;;;;17.88;8.15;;;10.50;78.80;;;;;;4804632;29;86812;-80
2022/11/28 14:14:32;;;;;;;15.65;6.93;;;10.40;79.20;;;;;;4803377;29;86667;-80
2022/11/28 14:17:16;;;;;;;16.98;6.78;;;10.40;79.30;;;;;;4819083;29;85901;-81
2022/11/28 14:20:03;;;;;;;14.00;7.13;;;10.40;79.70;;;;;;4806988;29;86626;-79
2022/11/28 14:22:57;;;;;;;16.73;7.47;;;10.40;79.50;;;;;;4800743;29;86742;-79
2022/11/28 14:25:45;;;;;;;18.55;8.45;;;10.30;79.70;;;;;;4800894;29;87266;-80
2022/11/28 14:28:32;;;;;;;17.17;7.65;;;10.30;80.70;;;;;;4812042;29;86719;-78
2022/11/28 14:31:09;;;;;;;16.35;7.88;;;10.30;81.30;;;;;;4806771;29;86654;-78
2022/11/28 14:33:43;;;;;;;16.30;8.63;;;10.20;80.90;;;;;;4804566;29;87307;-78
2022/11/28 14:36:24;;;;;;;16.80;7.95;;;10.20;81.10;;;;;;4809789;29;86402;-79
2022/11/28 14:39:14;;;;;;;16.48;8.07;;;10.20;81.50;;;;;;4817001;29;86121;-78
2022/11/28 14:42:01;;;;;;;16.58;8.23;;;10.10;81.80;;;;;;4799110;29;86895;-79
2022/11/28 14:44:59;;;;;;;20.17;8.13;;;10.10;81.80;;;;;;4807949;29;87553;-79
2022/11/28 14:47:30;;;;;;;17.02;7.72;;;10.10;82.30;;;;;;4805143;29;86975;-79
2022/11/28 14:50:17;;;;;;;22.33;8.07;;;10.10;82.50;;;;;;4808124;29;86452;-79
2022/11/28 14:52:46;;;;;;;17.90;8.10;;;10.00;82.40;;;;;;4797143;29;87990;-77
2022/11/28 14:55:22;;;;;;;19.80;8.32;;;10.00;82.80;;;;;;4800601;29;87323;-78
2022/11/28 14:57:59;;;;;;;22.35;7.75;;;10.00;83.20;;;;;;4800101;29;89057;-79
2022/11/28 15:00:37;;;;;;;18.67;8.40;;;9.90;83.20;;;;;;4799481;29;86196;-77
2022/11/28 15:03:03;;;;;;;15.07;7.57;;;9.90;83.50;;;;;;4800841;29;87200;-80
2022/11/28 15:05:36;;;;;;;18.88;7.43;;;9.80;83.30;;;;;;4809583;29;86610;-78
2022/11/28 15:08:10;;;;;;;20.17;7.68;;;9.80;83.50;;;;;;4801909;29;86846;-79
2022/11/28 15:11:06;;;;;;;14.70;7.00;;;9.70;83.30;;;;;;4805824;29;86261;-78
2022/11/28 15:13:58;;;;;;;19.58;7.20;;;9.70;83.00;;;;;;4814412;29;87659;-78
2022/11/28 15:16:27;;;;;;;13.32;6.50;;;9.60;82.80;;;;;;4811036;29;86385;-81
2022/11/28 15:19:04;;;;;;;11.25;6.20;;;9.60;82.70;;;;;;4810520;29;88004;-80
2022/11/28 15:21:40;;;;;;;11.82;6.38;;;9.50;83.10;;;;;;4801004;29;86731;-80
2022/11/28 15:24:30;;;;;;;21.60;7.00;;;9.40;83.80;;;;;;4827187;29;86722;-81
2022/11/28 15:27:06;;;;;;;22.83;8.25;;;9.40;84.70;;;;;;4794163;29;87637;-80
2022/11/28 15:29:33;;;;;;;20.85;9.05;;;9.30;84.80;;;;;;4810298;29;86279;-81
2022/11/28 15:32:00;;;;;;;30.42;11.45;;;9.30;85.30;;;;;;4796350;29;86304;-80
2022/11/28 15:34:29;;;;;;;28.75;11.32;;;9.30;86.20;;;;;;4799047;29;86717;-80
2022/11/28 15:36:58;;;;;;;32.15;12.07;;;9.30;86.70;;;;;;4812222;29;87161;-79
2022/11/28 15:39:30;;;;;;;30.63;11.48;;;9.20;87.30;;;;;;4815697;29;86797;-80
2022/11/28 15:41:59;;;;;;;37.67;12.75;;;9.20;88.00;;;;;;4811102;29;86976;-78
2022/11/28 15:44:26;;;;;;;27.02;11.52;;;9.20;88.00;;;;;;4815130;29;88764;-78
2022/11/28 15:46:52;;;;;;;24.27;11.55;;;9.20;88.10;;;;;;4801888;29;87109;-82
2022/11/28 15:49:28;;;;;;;27.05;10.82;;;9.20;88.30;;;;;;4794506;29;86495;-82
2022/11/28 15:51:58;;;;;;;29.33;12.15;;;9.20;88.60;;;;;;4803987;29;86797;-87
2022/11/28 15:54:37;;;;;;;;;;;9.20;88.50;;;;;;4814226;29;87807;-84
2022/11/28 15:57:04;;;;;;;19.05;10.27;;;9.20;88.70;;;;;;4808560;29;86870;-79
2022/11/28 15:59:31;;;;;;;29.73;11.20;;;9.20;89.10;;;;;;4802078;29;86855;-82
2022/11/28 16:02:10;;;;;;;22.45;11.20;;;9.20;89.70;;;;;;4792608;29;85718;-78
2022/11/28 16:04:36;;;;;;;14.85;8.43;;;9.10;90.00;;;;;;4806348;29;87171;-78
2022/11/28 16:07:02;;;;;;;24.65;11.93;;;9.10;90.30;;;;;;4803137;29;88147;-78
2022/11/28 16:09:34;;;;;;;18.77;8.38;;;9.10;90.40;;;;;;4807935;29;88028;-79
2022/11/28 16:12:03;;;;;;;18.02;8.48;;;9.10;90.50;;;;;;4816666;29;86772;-78
2022/11/28 16:14:33;;;;;;;14.35;8.32;;;9.10;90.60;;;;;;4810077;29;86474;-79
2022/11/28 16:17:02;;;;;;;16.27;8.40;;;9.00;90.60;;;;;;4810924;29;87155;-77
2022/11/28 16:19:33;;;;;;;20.27;8.90;;;9.00;90.60;;;;;;4805909;29;86897;-79
2022/11/28 16:22:06;;;;;;;17.45;8.98;;;9.00;90.80;;;;;;4805811;29;86417;-79
2022/11/28 16:24:46;;;;;;;19.00;8.77;;;8.90;91.00;;;;;;4801687;29;87106;-79
2022/11/28 16:27:27;;;;;;;20.40;9.15;;;9.00;91.00;;;;;;4806321;29;86371;-78
2022/11/28 16:29:53;;;;;;;17.20;9.20;;;8.90;91.40;;;;;;4807982;29;86409;-78
2022/11/28 16:32:36;;;;;;;20.05;9.57;;;8.90;91.30;;;;;;4813493;29;86625;-78
2022/11/28 16:35:03;;;;;;;23.83;10.63;;;8.80;91.40;;;;;;4808710;29;88867;-78
2022/11/28 16:37:31;;;;;;;32.40;12.65;;;8.80;91.40;;;;;;4808071;29;87697;-77
2022/11/28 16:40:01;;;;;;;23.27;10.70;;;8.80;91.30;;;;;;4803640;29;87599;-78
2022/11/28 16:42:27;;;;;;;23.23;10.88;;;8.90;91.30;;;;;;4803020;29;86357;-77
2022/11/28 16:44:52;;;;;;;22.70;9.30;;;8.90;91.30;;;;;;4806880;29;87111;-77
2022/11/28 16:47:29;;;;;;;22.10;10.30;;;8.80;91.30;;;;;;4807647;29;86801;-78
2022/11/28 16:50:04;;;;;;;15.23;8.27;;;8.90;91.40;;;;;;4802568;29;87116;-80
2022/11/28 16:52:38;;;;;;;18.08;8.65;;;8.80;91.50;;;;;;4797933;29;85544;-82
2022/11/28 16:55:29;;;;;;;18.42;8.48;;;8.80;91.50;;;;;;4795779;29;87719;-80
2022/11/28 16:58:15;;;;;;;13.93;7.97;;;8.80;91.40;;;;;;4808507;29;87822;-78
2022/11/28 17:00:56;;;;;;;15.32;8.00;;;8.90;91.40;;;;;;4801044;29;88198;-81
2022/11/28 17:03:40;;;;;;;19.77;8.43;;;8.90;91.30;;;;;;4799360;29;86312;-78